Time;durP1;ratioP1;P1;durP2;ratioP2;P2;SDS_P1;SDS_P2;PMS_P1;PMS_P2;Temp;Humidity;BMP_temperature;BMP_pressure;BME280_temperature;BME280_humidity;BME280_pressure;Samples;Min_cycle;Max_cycle;Signal;HPM_P1;HPM_P2
2022/12/19 00:01:31;;;;;;;3.05;1.13;;;9.50;99.90;;;;;;4963427;28;20043;-63
2022/12/19 00:04:00;;;;;;;3.63;0.80;;;9.60;99.90;;;;;;4961978;28;20051;-63
2022/12/19 00:06:27;;;;;;;3.45;0.90;;;9.60;99.90;;;;;;4969425;28;20051;-64
2022/12/19 00:08:54;;;;;;;5.20;1.02;;;9.70;99.90;;;;;;4969644;28;20047;-64
2022/12/19 00:11:22;;;;;;;2.50;0.88;;;9.70;99.90;;;;;;4969689;28;20058;-64
2022/12/19 00:13:48;;;;;;;4.63;1.27;;;9.80;99.90;;;;;;4970080;28;20047;-64
2022/12/19 00:16:18;;;;;;;2.22;0.90;;;9.80;99.90;;;;;;4969609;28;20508;-64
2022/12/19 00:18:45;;;;;;;2.15;0.77;;;9.90;99.90;;;;;;4968886;28;20090;-64
2022/12/19 00:21:16;;;;;;;1.60;0.80;;;10.00;99.90;;;;;;4969421;28;20062;-65
2022/12/19 00:23:43;;;;;;;1.45;0.60;;;10.00;99.90;;;;;;4969965;28;20675;-64
2022/12/19 00:26:17;;;;;;;0.85;0.70;;;10.00;99.90;;;;;;4969669;28;20047;-63
2022/12/19 00:28:45;;;;;;;0.52;0.50;;;10.10;99.90;;;;;;4969985;28;20404;-64
2022/12/19 00:31:13;;;;;;;2.58;1.08;;;10.10;99.90;;;;;;4969500;28;20054;-64
2022/12/19 00:33:40;;;;;;;2.65;0.90;;;10.20;99.90;;;;;;4969535;28;20062;-63
2022/12/19 00:36:11;;;;;;;3.67;1.02;;;10.20;99.90;;;;;;4968258;28;20058;-63
2022/12/19 00:38:38;;;;;;;3.17;0.57;;;10.20;99.90;;;;;;4968669;28;20421;-63
2022/12/19 00:41:07;;;;;;;0.88;0.77;;;10.20;99.90;;;;;;4969252;28;20050;-63
2022/12/19 00:43:34;;;;;;;3.53;0.75;;;10.20;99.90;;;;;;4969456;28;20050;-64
2022/12/19 00:46:05;;;;;;;2.10;0.80;;;10.30;99.90;;;;;;4966584;28;20436;-64
2022/12/19 00:48:32;;;;;;;2.15;0.75;;;10.40;99.90;;;;;;4967771;28;20051;-63
2022/12/19 00:51:03;;;;;;;3.40;0.75;;;10.40;99.90;;;;;;4969246;28;20046;-64
2022/12/19 00:53:32;;;;;;;0.67;0.37;;;10.40;99.90;;;;;;4967406;28;20087;-63
2022/12/19 00:56:03;;;;;;;4.15;0.65;;;10.50;99.90;;;;;;4967850;28;20042;-63
2022/12/19 00:58:29;;;;;;;2.53;0.65;;;10.50;99.90;;;;;;4969466;28;20043;-65
2022/12/19 01:01:11;;;;;;;1.45;0.50;;;10.50;99.90;;;;;;4969338;28;20245;-64
2022/12/19 01:03:38;;;;;;;1.58;0.90;;;10.60;99.90;;;;;;4962160;28;20425;-64
2022/12/19 01:06:24;;;;;;;2.80;0.90;;;10.60;99.90;;;;;;4969358;28;20051;-64
2022/12/19 01:08:50;;;;;;;3.53;1.27;;;10.60;99.90;;;;;;4968172;28;20051;-64
2022/12/19 01:12:44;;;;;;;0.93;0.80;;;10.60;99.90;;;;;;4969283;28;20050;-64
2022/12/19 01:14:04;;;;;;;3.15;0.90;;;10.70;99.90;;;;;;4968916;28;20150;-64
2022/12/19 01:16:31;;;;;;;3.67;0.98;;;10.70;99.90;;;;;;4969299;28;20050;-64
2022/12/19 01:18:58;;;;;;;3.88;0.77;;;10.70;99.90;;;;;;4969724;28;20042;-64
2022/12/19 01:21:27;;;;;;;7.50;1.25;;;10.80;99.90;;;;;;4969064;28;20042;-66
2022/12/19 01:23:54;;;;;;;5.55;1.67;;;10.80;99.90;;;;;;4969306;28;20043;-64
2022/12/19 01:26:20;;;;;;;1.33;1.05;;;10.90;99.90;;;;;;4968997;28;20061;-64
2022/12/19 01:28:47;;;;;;;1.92;0.90;;;10.90;99.90;;;;;;4969254;28;20043;-64
2022/12/19 01:31:14;;;;;;;3.42;1.00;;;10.90;99.90;;;;;;4969838;28;20051;-64
2022/12/19 01:33:41;;;;;;;7.78;1.20;;;10.90;99.90;;;;;;4970669;28;20078;-63
2022/12/19 01:36:10;;;;;;;2.40;0.90;;;11.00;99.90;;;;;;4970311;28;20051;-64
2022/12/19 01:38:38;;;;;;;3.88;1.27;;;11.00;99.90;;;;;;4968836;28;20043;-64
2022/12/19 01:41:04;;;;;;;5.30;1.30;;;11.00;99.90;;;;;;4968017;28;20047;-64
2022/12/19 01:43:51;;;;;;;5.75;1.00;;;11.00;99.90;;;;;;4968960;28;20065;-64
2022/12/19 01:46:22;;;;;;;4.93;1.40;;;11.00;99.90;;;;;;4946293;28;20062;-64
2022/12/19 01:48:52;;;;;;;3.75;1.15;;;11.00;99.90;;;;;;4975772;28;20047;-65
2022/12/19 01:51:24;;;;;;;3.85;0.95;;;11.10;99.90;;;;;;4967328;28;20053;-64
2022/12/19 01:53:58;;;;;;;5.78;1.60;;;11.10;99.90;;;;;;4987044;28;20228;-65
2022/12/19 01:56:28;;;;;;;4.32;1.05;;;11.10;99.90;;;;;;4971587;28;20054;-64
2022/12/19 01:58:56;;;;;;;6.85;1.17;;;11.10;99.90;;;;;;4971403;28;20039;-65
2022/12/19 02:01:32;;;;;;;8.27;1.23;;;11.10;99.90;;;;;;4972499;28;20061;-64
2022/12/19 02:03:59;;;;;;;4.90;1.50;;;11.20;99.90;;;;;;4970868;28;20047;-64
2022/12/19 02:06:26;;;;;;;3.95;1.10;;;11.20;99.90;;;;;;4972386;28;20047;-63
2022/12/19 02:08:56;;;;;;;5.72;1.02;;;11.20;99.90;;;;;;4970829;28;20047;-64
2022/12/19 02:11:22;;;;;;;3.20;1.08;;;11.20;99.90;;;;;;4972352;28;20050;-64
2022/12/19 02:13:49;;;;;;;7.10;1.25;;;11.20;99.90;;;;;;4971701;28;20047;-64
2022/12/19 02:16:41;;;;;;;4.45;1.13;;;11.30;99.90;;;;;;4970767;28;20518;-64
2022/12/19 02:19:51;;;;;;;5.85;1.75;;;11.30;99.90;;;;;;4970843;28;20134;-64
2022/12/19 02:22:24;;;;;;;8.10;3.35;;;11.30;99.90;;;;;;4949059;28;20088;-64
2022/12/19 02:25:04;;;;;;;7.00;1.60;;;11.30;99.90;;;;;;4971921;28;20146;-64
2022/12/19 02:27:40;;;;;;;10.75;1.50;;;11.30;99.90;;;;;;4971615;28;20149;-64
2022/12/19 02:30:09;;;;;;;5.55;1.33;;;11.30;99.90;;;;;;4971462;28;20070;-64
2022/12/19 02:32:45;;;;;;;7.22;1.83;;;11.30;99.90;;;;;;4971408;28;20059;-65
2022/12/19 02:35:39;;;;;;;7.65;1.40;;;11.30;99.90;;;;;;4970856;28;20557;-65
2022/12/19 02:38:26;;;;;;;8.18;1.90;;;11.30;99.90;;;;;;4970652;28;20055;-65
2022/12/19 02:40:59;;;;;;;8.98;1.60;;;11.40;99.90;;;;;;4970446;28;20046;-64
2022/12/19 02:43:28;;;;;;;9.95;2.30;;;11.40;99.90;;;;;;4971365;28;20063;-64
2022/12/19 02:45:55;;;;;;;11.32;2.55;;;11.40;99.90;;;;;;4970462;28;20048;-64
2022/12/19 02:48:23;;;;;;;13.15;3.00;;;11.40;99.90;;;;;;4970358;28;20054;-64
2022/12/19 02:50:49;;;;;;;10.77;2.97;;;11.40;99.90;;;;;;4970183;28;20134;-64
2022/12/19 02:53:16;;;;;;;10.77;2.67;;;11.40;99.90;;;;;;4971405;28;20057;-64
2022/12/19 02:56:12;;;;;;;6.95;1.77;;;11.40;99.90;;;;;;4970948;28;20051;-64
2022/12/19 02:58:50;;;;;;;7.13;2.00;;;11.40;99.90;;;;;;4951268;29;20462;-64
2022/12/19 03:01:44;;;;;;;7.60;2.22;;;11.40;99.90;;;;;;4967332;28;20054;-64
2022/12/19 03:04:20;;;;;;;7.13;2.22;;;11.40;99.90;;;;;;4971191;28;20051;-64
2022/12/19 03:06:54;;;;;;;6.40;1.63;;;11.40;99.90;;;;;;4971200;28;20050;-64
2022/12/19 03:09:25;;;;;;;5.88;1.77;;;11.40;99.90;;;;;;4971357;28;20177;-64
2022/12/19 03:12:00;;;;;;;7.82;2.67;;;11.40;99.90;;;;;;4969715;28;20051;-64
2022/12/19 03:14:27;;;;;;;12.68;1.60;;;11.40;99.90;;;;;;4969757;28;20556;-64
2022/12/19 03:16:53;;;;;;;4.22;1.60;;;11.40;99.90;;;;;;4969601;28;20050;-65
2022/12/19 03:19:20;;;;;;;6.95;1.65;;;11.40;99.90;;;;;;4969984;28;20070;-64
2022/12/19 03:21:47;;;;;;;11.10;2.08;;;11.40;99.90;;;;;;4970570;28;20049;-64
2022/12/19 03:24:15;;;;;;;9.70;2.17;;;11.40;99.90;;;;;;4969982;28;20097;-64
2022/12/19 03:26:53;;;;;;;7.57;2.25;;;11.40;99.90;;;;;;4969247;28;20046;-64
2022/12/19 03:29:32;;;;;;;12.40;2.38;;;11.50;99.90;;;;;;4972257;28;20057;-64
2022/12/19 03:31:59;;;;;;;6.43;2.30;;;11.50;99.90;;;;;;4972709;28;20047;-64
2022/12/19 03:34:39;;;;;;;8.05;2.15;;;11.50;99.90;;;;;;4972575;28;20085;-64
2022/12/19 03:37:08;;;;;;;7.38;2.25;;;11.50;99.90;;;;;;4971726;28;20061;-65
2022/12/19 03:39:35;;;;;;;8.77;2.05;;;11.50;99.90;;;;;;4972381;28;20057;-65
2022/12/19 03:44:48;;;;;;;17.23;2.95;;;11.50;99.90;;;;;;4971250;28;20046;-64
2022/12/19 03:47:28;;;;;;;12.57;2.85;;;11.50;99.90;;;;;;4969422;28;20398;-65
2022/12/19 03:49:54;;;;;;;9.93;2.55;;;11.50;99.90;;;;;;4969122;28;20046;-65
2022/12/19 03:52:50;;;;;;;8.63;3.03;;;11.50;99.90;;;;;;4969230;28;20047;-65
2022/12/19 03:55:26;;;;;;;16.65;3.28;;;11.50;99.90;;;;;;4969523;28;20042;-65
2022/12/19 03:58:31;;;;;;;10.63;2.13;;;11.50;99.90;;;;;;4969876;28;20061;-65
2022/12/19 04:00:59;;;;;;;12.43;3.10;;;11.50;99.90;;;;;;4972403;28;20050;-65
2022/12/19 04:03:26;;;;;;;13.40;2.28;;;11.50;99.90;;;;;;4966920;28;20078;-65
2022/12/19 04:05:53;;;;;;;13.30;2.45;;;11.50;99.90;;;;;;4969460;28;20133;-65
2022/12/19 04:08:20;;;;;;;12.68;2.50;;;11.50;99.90;;;;;;4969393;28;20058;-65
2022/12/19 04:10:49;;;;;;;11.65;2.15;;;11.50;99.90;;;;;;4972843;28;20074;-64
2022/12/19 04:13:18;;;;;;;8.55;2.03;;;11.50;99.90;;;;;;4974770;28;20055;-64
2022/12/19 04:15:57;;;;;;;9.43;3.20;;;11.50;99.90;;;;;;4972369;28;20054;-65
2022/12/19 04:18:24;;;;;;;10.40;2.58;;;11.50;99.90;;;;;;4972778;28;20051;-65
2022/12/19 04:20:57;;;;;;;10.65;1.95;;;11.50;99.90;;;;;;4971780;28;20552;-66
2022/12/19 04:23:30;;;;;;;7.37;1.97;;;11.50;99.90;;;;;;4971414;28;20456;-65
2022/12/19 04:25:59;;;;;;;7.00;1.30;;;11.50;99.90;;;;;;4969327;28;20129;-65
2022/12/19 04:28:26;;;;;;;5.82;2.00;;;11.50;99.90;;;;;;4968502;28;20126;-65
2022/12/19 04:30:53;;;;;;;5.55;1.73;;;11.60;99.90;;;;;;4969804;28;20054;-64
2022/12/19 04:33:20;;;;;;;8.77;2.17;;;11.60;99.90;;;;;;4968522;28;20050;-65
2022/12/19 04:35:46;;;;;;;10.20;2.17;;;11.60;99.90;;;;;;4969497;28;20090;-65
2022/12/19 04:38:13;;;;;;;6.93;2.40;;;11.60;99.90;;;;;;4968534;28;20066;-65
2022/12/19 04:40:40;;;;;;;8.85;2.40;;;11.60;99.90;;;;;;4968684;28;20051;-65
2022/12/19 04:43:07;;;;;;;9.38;2.33;;;11.60;99.90;;;;;;4969569;28;20050;-65
2022/12/19 04:45:34;;;;;;;8.55;2.05;;;11.60;99.90;;;;;;4969815;28;20133;-64
2022/12/19 04:48:02;;;;;;;7.43;1.85;;;11.60;99.90;;;;;;4968454;28;20078;-67
2022/12/19 04:50:29;;;;;;;7.13;1.77;;;11.60;99.90;;;;;;4969351;28;20053;-65
2022/12/19 04:52:55;;;;;;;8.07;1.90;;;11.60;99.90;;;;;;4969651;28;20082;-66
2022/12/19 04:55:22;;;;;;;9.25;2.10;;;11.60;99.90;;;;;;4969260;28;20047;-65
2022/12/19 04:57:49;;;;;;;9.32;2.28;;;11.60;99.90;;;;;;4965578;28;20083;-66
2022/12/19 05:00:16;;;;;;;4.22;1.40;;;11.60;99.90;;;;;;4965767;28;20061;-65
2022/12/19 05:02:44;;;;;;;5.03;1.30;;;11.60;99.90;;;;;;4969976;28;20491;-65
2022/12/19 05:05:11;;;;;;;7.03;1.23;;;11.60;99.90;;;;;;4969031;28;20083;-64
2022/12/19 05:07:39;;;;;;;6.60;1.40;;;11.60;99.90;;;;;;4968838;28;20056;-66
2022/12/19 05:10:06;;;;;;;3.78;1.35;;;11.60;99.90;;;;;;4968367;28;20043;-64
2022/12/19 05:12:33;;;;;;;7.38;1.33;;;11.60;99.90;;;;;;4966859;28;20126;-65
2022/12/19 05:15:00;;;;;;;4.32;1.10;;;11.60;99.90;;;;;;4967242;28;20061;-65
2022/12/19 05:17:27;;;;;;;6.70;1.60;;;11.60;99.90;;;;;;4967365;28;20889;-65
2022/12/19 05:19:53;;;;;;;4.97;1.35;;;11.60;99.90;;;;;;4968018;28;20043;-65
2022/12/19 05:22:20;;;;;;;4.20;1.42;;;11.60;99.90;;;;;;4968050;28;20055;-65
2022/12/19 05:24:47;;;;;;;6.47;1.58;;;11.60;99.90;;;;;;4967739;28;20046;-65
2022/12/19 05:27:14;;;;;;;3.55;1.30;;;11.60;99.90;;;;;;4968909;28;20138;-66
2022/12/19 05:29:41;;;;;;;10.85;1.98;;;11.70;99.90;;;;;;4971617;28;20146;-65
2022/12/19 05:32:07;;;;;;;7.47;2.50;;;11.70;99.90;;;;;;4972231;28;20530;-65
2022/12/19 05:34:34;;;;;;;7.70;1.40;;;11.70;99.90;;;;;;4972164;28;20458;-66
2022/12/19 05:37:02;;;;;;;2.00;0.88;;;11.70;99.90;;;;;;4970891;28;20082;-64
2022/12/19 05:39:29;;;;;;;5.47;1.00;;;11.70;99.90;;;;;;4972530;28;20051;-65
2022/12/19 05:41:56;;;;;;;4.20;1.08;;;11.70;99.90;;;;;;4972330;28;20050;-64
2022/12/19 05:44:23;;;;;;;2.53;1.00;;;11.70;99.90;;;;;;4972624;28;20046;-64
2022/12/19 05:46:50;;;;;;;5.05;1.25;;;11.70;99.90;;;;;;4972399;28;20047;-64
2022/12/19 05:49:18;;;;;;;5.70;1.20;;;11.70;99.90;;;;;;4971489;28;20395;-65
2022/12/19 05:51:45;;;;;;;6.43;1.20;;;11.70;99.90;;;;;;4970991;28;20046;-65
2022/12/19 05:54:13;;;;;;;8.02;1.92;;;11.70;99.90;;;;;;4972351;28;20061;-65
2022/12/19 05:56:40;;;;;;;6.20;0.93;;;11.80;99.90;;;;;;4970560;28;20534;-65
2022/12/19 05:59:07;;;;;;;2.33;1.20;;;11.80;99.90;;;;;;4972095;28;20146;-65
2022/12/19 06:01:33;;;;;;;6.07;1.60;;;11.80;99.90;;;;;;4971679;28;20046;-64
2022/12/19 06:04:00;;;;;;;4.80;1.70;;;11.80;99.90;;;;;;4971872;28;20070;-65
2022/12/19 06:06:27;;;;;;;5.97;1.50;;;11.70;99.90;;;;;;4972258;28;20043;-65
2022/12/19 06:08:56;;;;;;;6.75;1.30;;;11.80;99.90;;;;;;4971047;28;20078;-65
2022/12/19 06:11:24;;;;;;;4.60;1.25;;;11.80;99.90;;;;;;4986643;28;20520;-65
2022/12/19 06:13:51;;;;;;;6.65;1.30;;;11.80;99.90;;;;;;4971620;28;20050;-64
2022/12/19 06:16:18;;;;;;;11.73;1.70;;;11.80;99.90;;;;;;4971622;28;20612;-64
2022/12/19 06:18:46;;;;;;;3.55;1.20;;;11.80;99.90;;;;;;4972033;28;20074;-65
2022/12/19 06:21:14;;;;;;;3.42;1.05;;;11.80;99.90;;;;;;4971546;28;20062;-65
2022/12/19 06:23:41;;;;;;;3.97;1.25;;;11.80;99.90;;;;;;4967816;28;20101;-65
2022/12/19 06:26:10;;;;;;;4.13;1.00;;;11.80;99.90;;;;;;4971649;28;20073;-64
2022/12/19 06:28:45;;;;;;;4.75;1.55;;;11.80;99.90;;;;;;4971893;28;20132;-64
2022/12/19 06:31:12;;;;;;;7.88;1.70;;;11.80;99.90;;;;;;4964138;28;20126;-65
2022/12/19 06:33:38;;;;;;;4.80;1.15;;;11.80;99.90;;;;;;4970351;28;20134;-64
2022/12/19 06:36:19;;;;;;;4.20;1.00;;;11.80;99.90;;;;;;4971785;28;20053;-64
2022/12/19 06:38:46;;;;;;;10.15;1.73;;;11.80;99.90;;;;;;4971086;28;20053;-65
2022/12/19 06:43:59;;;;;;;3.55;1.15;;;11.80;99.90;;;;;;4973237;28;20411;-64
2022/12/19 06:46:27;;;;;;;6.47;1.50;;;11.80;99.90;;;;;;4972036;28;20051;-65
2022/12/19 06:48:58;;;;;;;6.68;1.52;;;11.80;99.90;;;;;;4972992;28;20055;-65
2022/12/19 06:51:25;;;;;;;11.05;2.00;;;11.80;99.90;;;;;;4986247;28;20062;-65
2022/12/19 06:53:52;;;;;;;8.02;1.70;;;11.80;99.90;;;;;;4971328;28;20043;-65
2022/12/19 06:56:19;;;;;;;9.40;2.10;;;11.80;99.90;;;;;;4970103;28;20134;-65
2022/12/19 06:58:46;;;;;;;3.67;1.60;;;11.80;99.90;;;;;;4970861;28;20085;-65
2022/12/19 07:01:17;;;;;;;5.18;1.40;;;11.90;99.90;;;;;;4971220;28;20073;-65
2022/12/19 07:03:44;;;;;;;6.32;2.20;;;11.90;99.90;;;;;;4969301;28;20050;-65
2022/12/19 07:06:11;;;;;;;9.77;1.73;;;11.90;99.90;;;;;;4969844;28;20055;-65
2022/12/19 07:08:38;;;;;;;7.10;2.47;;;11.90;99.90;;;;;;4970573;28;20046;-64
2022/12/19 07:11:05;;;;;;;7.18;1.77;;;11.90;99.90;;;;;;4970828;28;20121;-65
2022/12/19 07:13:31;;;;;;;7.70;1.30;;;11.90;99.90;;;;;;4970401;28;20063;-65
2022/12/19 07:15:59;;;;;;;7.78;1.70;;;11.90;99.90;;;;;;4970249;28;20050;-64
2022/12/19 07:18:27;;;;;;;6.18;1.85;;;11.90;99.90;;;;;;4968798;28;20055;-65
2022/12/19 07:20:55;;;;;;;7.32;2.13;;;11.90;99.90;;;;;;4969436;28;20138;-65
2022/12/19 07:23:21;;;;;;;5.93;1.40;;;11.90;99.90;;;;;;4969481;28;20095;-65
2022/12/19 07:25:49;;;;;;;3.05;1.23;;;11.90;99.90;;;;;;4970486;28;20053;-65
2022/12/19 07:28:16;;;;;;;3.92;1.60;;;12.00;99.90;;;;;;4969538;28;20061;-66
2022/12/19 07:30:42;;;;;;;11.70;2.00;;;11.90;99.90;;;;;;4968723;28;20047;-65
2022/12/19 07:33:09;;;;;;;3.33;1.10;;;12.00;99.90;;;;;;4970446;28;20588;-65
2022/12/19 07:35:38;;;;;;;3.05;1.20;;;12.00;99.90;;;;;;4969986;28;20070;-65
2022/12/19 07:38:05;;;;;;;5.90;1.25;;;12.00;99.90;;;;;;4968835;28;20114;-66
2022/12/19 07:40:32;;;;;;;5.78;2.10;;;12.00;99.90;;;;;;4970101;28;20042;-65
2022/12/19 07:43:03;;;;;;;4.40;1.40;;;12.00;99.90;;;;;;4970262;28;20070;-66
2022/12/19 07:45:30;;;;;;;4.00;1.20;;;12.00;99.90;;;;;;4969977;28;20508;-65
2022/12/19 07:48:01;;;;;;;6.35;1.45;;;12.00;99.90;;;;;;4969654;28;20058;-65
2022/12/19 07:50:28;;;;;;;4.18;1.33;;;12.00;99.90;;;;;;4969310;28;20146;-65
2022/12/19 07:52:55;;;;;;;3.45;1.10;;;11.90;99.90;;;;;;4970236;28;20050;-65
2022/12/19 07:55:22;;;;;;;4.57;1.17;;;11.90;99.90;;;;;;4968921;28;20051;-65
2022/12/19 07:57:49;;;;;;;5.38;1.10;;;11.90;99.90;;;;;;4970109;28;20057;-65
2022/12/19 08:00:16;;;;;;;4.70;1.35;;;11.80;99.90;;;;;;4969512;28;20240;-64
2022/12/19 08:02:43;;;;;;;4.43;1.30;;;11.90;99.90;;;;;;4969900;28;20137;-65
2022/12/19 08:05:11;;;;;;;7.63;1.52;;;11.80;99.90;;;;;;4961135;28;20549;-65
2022/12/19 08:07:38;;;;;;;8.02;1.70;;;11.80;99.90;;;;;;4969558;28;20054;-65
2022/12/19 08:10:05;;;;;;;10.48;1.88;;;11.80;99.90;;;;;;4964509;28;20430;-65
2022/12/19 08:12:33;;;;;;;5.10;1.80;;;11.80;99.90;;;;;;4967963;28;20082;-65
2022/12/19 08:14:59;;;;;;;5.47;1.63;;;11.80;99.90;;;;;;4969296;28;20050;-65
2022/12/19 08:17:26;;;;;;;7.18;1.80;;;11.80;99.90;;;;;;4965573;28;20130;-65
2022/12/19 08:19:53;;;;;;;6.03;1.67;;;11.80;99.90;;;;;;4969256;28;20047;-65
2022/12/19 08:22:19;;;;;;;7.93;2.90;;;11.80;99.90;;;;;;4968965;28;20101;-66
2022/12/19 08:24:46;;;;;;;7.95;2.45;;;11.80;99.90;;;;;;4969151;28;20565;-65
2022/12/19 08:27:15;;;;;;;8.45;2.33;;;11.80;99.90;;;;;;4968672;28;20050;-65
2022/12/19 08:29:42;;;;;;;9.07;2.13;;;11.80;99.90;;;;;;4969445;28;20133;-66
2022/12/19 08:32:09;;;;;;;7.07;2.40;;;11.80;99.90;;;;;;4966812;28;20543;-66
2022/12/19 08:34:41;;;;;;;7.93;2.63;;;11.80;99.90;;;;;;4969255;28;20066;-65
2022/12/19 08:37:09;;;;;;;8.85;2.20;;;11.80;99.90;;;;;;4969079;28;20050;-66
2022/12/19 08:39:36;;;;;;;8.35;2.13;;;11.80;99.90;;;;;;4966740;28;20093;-66
2022/12/19 08:42:03;;;;;;;13.07;2.50;;;11.80;99.90;;;;;;4968974;28;20057;-68
2022/12/19 08:44:30;;;;;;;13.15;3.15;;;11.80;99.90;;;;;;4984621;28;20417;-65
2022/12/19 08:46:57;;;;;;;10.88;3.42;;;11.80;99.90;;;;;;4969142;28;20051;-66
2022/12/19 08:49:24;;;;;;;6.80;2.38;;;11.80;99.90;;;;;;4969580;28;20673;-65
2022/12/19 08:51:51;;;;;;;12.40;2.20;;;11.80;99.90;;;;;;4983899;28;20051;-65
2022/12/19 08:54:18;;;;;;;4.65;2.08;;;11.90;99.90;;;;;;4969255;28;20516;-65
2022/12/19 08:56:45;;;;;;;7.32;1.90;;;11.80;99.90;;;;;;4967955;28;20101;-66
2022/12/19 08:59:16;;;;;;;10.55;2.15;;;11.90;99.90;;;;;;4969398;28;20047;-67
2022/12/19 09:01:57;;;;;;;8.38;3.25;;;11.80;99.90;;;;;;4968816;28;20101;-66
2022/12/19 09:04:25;;;;;;;10.77;2.38;;;11.90;99.90;;;;;;4969047;28;20127;-66
2022/12/19 09:07:12;;;;;;;12.73;5.00;;;11.90;99.90;;;;;;4622494;28;10000142;-68
2022/12/19 09:09:41;;;;;;;5.70;1.92;;;11.90;99.90;;;;;;4953809;28;20055;-65
2022/12/19 09:12:08;;;;;;;9.45;2.03;;;11.90;99.90;;;;;;4966766;28;20105;-66
2022/12/19 09:14:38;;;;;;;9.05;1.90;;;11.90;99.90;;;;;;4965777;28;20072;-65
2022/12/19 09:17:05;;;;;;;8.15;1.83;;;11.90;99.90;;;;;;4982912;28;20392;-66
2022/12/19 09:19:32;;;;;;;9.55;2.03;;;12.00;99.90;;;;;;4966625;28;20051;-65
2022/12/19 09:21:59;;;;;;;11.45;3.38;;;12.00;99.90;;;;;;4965994;28;20105;-66
2022/12/19 09:24:26;;;;;;;5.70;2.67;;;12.00;99.90;;;;;;4961879;28;20600;-66
2022/12/19 09:26:53;;;;;;;7.78;1.42;;;12.00;99.90;;;;;;4963194;28;20085;-66
2022/12/19 09:29:20;;;;;;;7.13;2.42;;;12.10;99.90;;;;;;4964740;28;20063;-65
2022/12/19 09:31:48;;;;;;;7.60;1.70;;;12.10;99.90;;;;;;4966123;28;20238;-66
2022/12/19 09:34:27;;;;;;;4.85;1.55;;;12.10;99.90;;;;;;4962728;28;20153;-66
2022/12/19 09:37:08;;;;;;;5.95;1.38;;;12.10;99.90;;;;;;4966544;28;20451;-65
2022/12/19 09:39:45;;;;;;;10.32;2.88;;;12.10;99.90;;;;;;4966126;28;20762;-65
2022/12/19 09:42:33;;;;;;;8.82;2.30;;;12.10;99.90;;;;;;4967091;28;20057;-66
2022/12/19 09:45:16;;;;;;;5.18;1.52;;;12.10;99.90;;;;;;4965182;28;20462;-67
2022/12/19 09:47:57;;;;;;;5.03;1.58;;;12.10;99.90;;;;;;4965069;28;20054;-65
2022/12/19 09:50:32;;;;;;;10.93;2.33;;;12.10;99.90;;;;;;4964923;28;20266;-66
2022/12/19 09:53:03;;;;;;;4.45;1.35;;;12.10;99.90;;;;;;4964592;28;20474;-66
2022/12/19 09:55:38;;;;;;;8.05;1.67;;;12.10;99.90;;;;;;4966005;28;20130;-66
2022/12/19 09:58:21;;;;;;;4.93;1.73;;;12.10;99.90;;;;;;4966345;28;20094;-66
2022/12/19 10:00:53;;;;;;;7.77;1.60;;;12.10;99.90;;;;;;4965836;28;20075;-66
2022/12/19 10:03:40;;;;;;;8.55;1.20;;;12.00;99.90;;;;;;4962319;28;20303;-66
2022/12/19 10:06:18;;;;;;;8.10;2.35;;;12.00;99.90;;;;;;4958798;28;20070;-65
2022/12/19 10:09:18;;;;;;;4.80;1.40;;;12.00;99.90;;;;;;4963444;28;20047;-66
2022/12/19 10:12:26;;;;;;;4.18;1.50;;;12.00;99.90;;;;;;4964442;28;20054;-65
2022/12/19 10:15:19;;;;;;;8.63;1.52;;;12.00;99.90;;;;;;4969216;28;20057;-65
2022/12/19 10:17:58;;;;;;;4.57;1.02;;;12.00;99.90;;;;;;4968813;28;20058;-65
2022/12/19 10:20:40;;;;;;;4.20;1.20;;;12.00;99.90;;;;;;4968952;28;20134;-65
2022/12/19 10:23:33;;;;;;;8.20;1.52;;;12.00;99.90;;;;;;4958693;28;20086;-65
2022/12/19 10:26:18;;;;;;;12.95;1.80;;;12.00;99.90;;;;;;4961380;28;20167;-65
2022/12/19 10:29:09;;;;;;;12.98;2.70;;;12.00;99.90;;;;;;4965822;28;20110;-65
2022/12/19 10:32:03;;;;;;;11.35;3.00;;;12.00;99.90;;;;;;4970223;28;20153;-65
2022/12/19 10:34:44;;;;;;;5.15;1.33;;;12.00;99.90;;;;;;4956523;28;20701;-65
2022/12/19 10:37:38;;;;;;;7.15;2.03;;;12.00;99.90;;;;;;4969120;28;20129;-65
2022/12/19 10:40:22;;;;;;;9.52;2.33;;;12.00;99.90;;;;;;4979823;28;20063;-65
2022/12/19 10:43:30;;;;;;;14.30;4.20;;;12.00;99.90;;;;;;4968593;28;20054;-65
2022/12/19 10:46:18;;;;;;;18.30;2.67;;;11.90;99.90;;;;;;4967430;28;20536;-65
2022/12/19 10:48:47;;;;;;;9.82;2.10;;;11.90;99.90;;;;;;4967217;28;20161;-65
2022/12/19 10:51:21;;;;;;;10.88;2.65;;;11.90;99.90;;;;;;4967404;28;20058;-65
2022/12/19 10:53:56;;;;;;;10.32;2.20;;;12.00;99.90;;;;;;4967787;28;20138;-66
2022/12/19 10:56:25;;;;;;;11.10;2.28;;;12.00;99.90;;;;;;4967066;28;20623;-66
2022/12/19 10:59:02;;;;;;;10.82;3.28;;;12.00;99.90;;;;;;4951470;28;20150;-66
2022/12/19 11:01:37;;;;;;;17.42;2.58;;;12.00;99.90;;;;;;4967800;28;20137;-66
2022/12/19 11:04:18;;;;;;;7.05;2.20;;;12.00;99.90;;;;;;4966498;28;20530;-67
2022/12/19 11:06:46;;;;;;;12.93;2.08;;;11.90;99.90;;;;;;4966169;28;20057;-67
2022/12/19 11:09:36;;;;;;;7.60;1.95;;;11.90;99.90;;;;;;4967359;28;20057;-66
2022/12/19 11:12:06;;;;;;;6.43;1.67;;;11.90;99.90;;;;;;4968719;28;20051;-65
2022/12/19 11:15:08;;;;;;;10.25;2.30;;;11.90;99.90;;;;;;4968698;28;20094;-66
2022/12/19 11:18:06;;;;;;;9.35;1.77;;;11.90;99.90;;;;;;4968178;28;20055;-66
2022/12/19 11:21:03;;;;;;;4.13;1.60;;;11.90;99.90;;;;;;4967275;28;20434;-67
2022/12/19 11:24:03;;;;;;;3.20;1.30;;;11.90;99.90;;;;;;4964618;28;20047;-67
2022/12/19 11:26:51;;;;;;;7.78;1.38;;;11.90;99.90;;;;;;4966899;28;20042;-66
2022/12/19 11:29:46;;;;;;;6.18;1.23;;;11.90;99.90;;;;;;4967323;28;20111;-66
2022/12/19 11:32:38;;;;;;;11.85;1.42;;;11.90;99.90;;;;;;4956637;28;20046;-66
2022/12/19 11:35:18;;;;;;;5.63;1.40;;;11.90;99.90;;;;;;4968379;28;20442;-66
2022/12/19 11:38:05;;;;;;;7.07;1.40;;;11.90;99.90;;;;;;4967829;28;20046;-66
2022/12/19 11:40:40;;;;;;;11.77;2.72;;;11.80;99.90;;;;;;4966857;28;20089;-66
2022/12/19 11:43:35;;;;;;;9.88;2.47;;;11.90;99.90;;;;;;4967386;28;20062;-66
2022/12/19 11:46:29;;;;;;;15.57;2.10;;;11.90;99.90;;;;;;4948895;28;20047;-66
2022/12/19 11:49:01;;;;;;;17.05;2.20;;;11.90;99.90;;;;;;4966023;28;20055;-66
2022/12/19 11:51:42;;;;;;;13.05;2.10;;;11.90;99.90;;;;;;4949662;29;20051;-67
2022/12/19 11:54:16;;;;;;;9.32;2.00;;;11.90;99.90;;;;;;4960436;28;20049;-67
2022/12/19 11:56:47;;;;;;;16.05;3.78;;;11.90;99.90;;;;;;4956986;28;20059;-69
2022/12/19 11:59:25;;;;;;;15.90;2.33;;;11.90;99.90;;;;;;4959453;28;20050;-66
2022/12/19 12:02:27;;;;;;;20.17;3.83;;;12.00;99.90;;;;;;4959876;28;20554;-66
2022/12/19 12:05:23;;;;;;;7.70;2.00;;;12.00;99.90;;;;;;4963157;28;20494;-67
2022/12/19 12:08:22;;;;;;;8.65;3.08;;;12.00;99.90;;;;;;4962092;28;20574;-67
2022/12/19 12:11:39;;;;;;;10.20;3.00;;;12.10;99.90;;;;;;4959843;28;20546;-67
2022/12/19 12:14:37;;;;;;;18.73;3.42;;;12.10;99.90;;;;;;4958271;28;20463;-67
2022/12/19 12:17:45;;;;;;;14.70;2.38;;;12.10;99.90;;;;;;4953496;28;20542;-67
2022/12/19 12:20:55;;;;;;;13.68;2.40;;;12.10;99.90;;;;;;4961993;28;20078;-66
2022/12/19 12:24:18;;;;;;;8.38;2.00;;;12.20;99.90;;;;;;4955890;28;20042;-67
2022/12/19 12:27:11;;;;;;;14.95;2.80;;;12.20;99.90;;;;;;4959749;28;20078;-66
2022/12/19 12:29:58;;;;;;;10.52;2.70;;;12.20;99.90;;;;;;4962212;28;20478;-66
2022/12/19 12:33:00;;;;;;;12.52;2.83;;;12.20;99.90;;;;;;4947624;28;20059;-66
2022/12/19 12:35:50;;;;;;;7.47;2.13;;;12.20;99.90;;;;;;4966180;28;20728;-65
2022/12/19 12:38:45;;;;;;;9.27;3.10;;;12.20;99.90;;;;;;4967869;28;20054;-66
2022/12/19 12:42:02;;;;;;;8.27;2.05;;;12.20;99.90;;;;;;4967415;28;20122;-66
2022/12/19 12:44:21;;;;;;;15.07;2.60;;;12.20;99.90;;;;;;4965116;28;20042;-67
2022/12/19 12:47:01;;;;;;;9.35;2.30;;;12.20;99.90;;;;;;4957840;28;20050;-67
2022/12/19 12:49:39;;;;;;;11.70;2.83;;;12.20;99.90;;;;;;4942108;28;20047;-67
2022/12/19 12:52:08;;;;;;;17.00;2.72;;;12.30;99.90;;;;;;4974774;28;20093;-66
2022/12/19 12:54:40;;;;;;;13.02;2.22;;;12.30;99.90;;;;;;4956554;28;20049;-66
2022/12/19 12:57:24;;;;;;;7.35;2.25;;;12.30;99.90;;;;;;4959317;28;20158;-66
2022/12/19 13:00:35;;;;;;;13.05;2.50;;;12.30;99.90;;;;;;4958064;28;20054;-66
2022/12/19 13:03:09;;;;;;;7.60;1.92;;;12.30;99.90;;;;;;4952109;28;20047;-65
2022/12/19 13:05:39;;;;;;;;;;;12.30;99.90;;;;;;4955450;28;20086;-67
2022/12/19 13:08:24;;;;;;;16.45;3.25;;;12.20;99.90;;;;;;4969308;28;19945;-66
2022/12/19 13:10:56;;;;;;;10.15;2.70;;;12.30;99.90;;;;;;4960245;28;20067;-66
2022/12/19 13:13:58;;;;;;;9.82;2.15;;;12.30;99.90;;;;;;4953247;28;20085;-66
2022/12/19 13:16:43;;;;;;;17.90;2.45;;;12.30;99.90;;;;;;4934675;29;20047;-65
2022/12/19 13:19:15;;;;;;;10.00;4.22;;;12.40;99.90;;;;;;4954699;28;20051;-64
2022/12/19 13:22:08;;;;;;;13.57;2.47;;;12.40;99.90;;;;;;4959144;28;20183;-66
2022/12/19 13:24:49;;;;;;;13.95;3.22;;;12.40;99.90;;;;;;4955686;28;20059;-65
2022/12/19 13:27:25;;;;;;;10.40;2.38;;;12.40;99.90;;;;;;4956546;28;20066;-66